sensor_id;sensor_type;location;lat;lon;timestamp;temperature;humidity
13616;DHT22;6879;51.368;6.782;2023-04-01T00:01:25;9.90;99.90
13616;DHT22;6879;51.368;6.782;2023-04-01T00:03:54;9.90;99.90
13616;DHT22;6879;51.368;6.782;2023-04-01T00:06:24;9.90;99.90
13616;DHT22;6879;51.368;6.782;2023-04-01T00:08:55;10.00;99.90
13616;DHT22;6879;51.368;6.782;2023-04-01T00:11:25;10.00;99.90
13616;DHT22;6879;51.368;6.782;2023-04-01T00:13:54;10.00;99.90
13616;DHT22;6879;51.368;6.782;2023-04-01T00:16:24;10.00;99.90
13616;DHT22;6879;51.368;6.782;2023-04-01T00:18:53;10.00;99.90
13616;DHT22;6879;51.368;6.782;2023-04-01T00:21:24;10.00;99.90
13616;DHT22;6879;51.368;6.782;2023-04-01T00:23:55;10.00;99.90
13616;DHT22;6879;51.368;6.782;2023-04-01T00:26:24;9.90;99.90
13616;DHT22;6879;51.368;6.782;2023-04-01T00:28:53;9.90;99.90
13616;DHT22;6879;51.368;6.782;2023-04-01T00:31:23;9.90;99.90
13616;DHT22;6879;51.368;6.782;2023-04-01T00:33:53;9.90;99.90
13616;DHT22;6879;51.368;6.782;2023-04-01T00:36:24;9.90;99.90
13616;DHT22;6879;51.368;6.782;2023-04-01T00:38:57;9.80;99.90
13616;DHT22;6879;51.368;6.782;2023-04-01T00:41:26;9.80;99.90
13616;DHT22;6879;51.368;6.782;2023-04-01T00:44:18;9.90;99.90
13616;DHT22;6879;51.368;6.782;2023-04-01T00:46:47;9.80;99.90
13616;DHT22;6879;51.368;6.782;2023-04-01T00:49:19;9.80;99.90
13616;DHT22;6879;51.368;6.782;2023-04-01T00:51:53;9.80;99.90
13616;DHT22;6879;51.368;6.782;2023-04-01T00:54:25;9.80;99.90
13616;DHT22;6879;51.368;6.782;2023-04-01T00:56:57;9.80;99.90
13616;DHT22;6879;51.368;6.782;2023-04-01T00:59:30;9.80;99.90
13616;DHT22;6879;51.368;6.782;2023-04-01T01:02:02;9.80;99.90
13616;DHT22;6879;51.368;6.782;2023-04-01T01:04:32;9.80;99.90
13616;DHT22;6879;51.368;6.782;2023-04-01T01:07:11;9.80;99.90
13616;DHT22;6879;51.368;6.782;2023-04-01T01:09:51;9.80;99.90
13616;DHT22;6879;51.368;6.782;2023-04-01T01:12:27;9.80;99.90
13616;DHT22;6879;51.368;6.782;2023-04-01T01:15:05;9.80;99.90
13616;DHT22;6879;51.368;6.782;2023-04-01T01:17:44;9.80;99.90
13616;DHT22;6879;51.368;6.782;2023-04-01T01:23:29;9.70;99.90
13616;DHT22;6879;51.368;6.782;2023-04-01T01:26:21;9.70;99.90
13616;DHT22;6879;51.368;6.782;2023-04-01T01:29:01;9.70;99.90
13616;DHT22;6879;51.368;6.782;2023-04-01T01:31:37;9.70;99.90
13616;DHT22;6879;51.368;6.782;2023-04-01T01:34:17;9.70;99.90
13616;DHT22;6879;51.368;6.782;2023-04-01T01:36:54;9.80;99.90
13616;DHT22;6879;51.368;6.782;2023-04-01T01:39:28;9.80;99.90
13616;DHT22;6879;51.368;6.782;2023-04-01T01:42:02;9.80;99.90
13616;DHT22;6879;51.368;6.782;2023-04-01T01:44:32;9.80;99.90
13616;DHT22;6879;51.368;6.782;2023-04-01T01:47:02;9.80;99.90
13616;DHT22;6879;51.368;6.782;2023-04-01T01:49:32;9.80;99.90
13616;DHT22;6879;51.368;6.782;2023-04-01T01:52:04;9.80;99.90
13616;DHT22;6879;51.368;6.782;2023-04-01T01:54:33;9.80;99.90
13616;DHT22;6879;51.368;6.782;2023-04-01T01:57:06;9.80;99.90
13616;DHT22;6879;51.368;6.782;2023-04-01T01:59:40;9.80;99.90
13616;DHT22;6879;51.368;6.782;2023-04-01T02:02:17;9.80;99.90
13616;DHT22;6879;51.368;6.782;2023-04-01T02:04:47;9.80;99.90
13616;DHT22;6879;51.368;6.782;2023-04-01T02:07:21;9.80;99.90
13616;DHT22;6879;51.368;6.782;2023-04-01T02:09:52;9.80;99.90
13616;DHT22;6879;51.368;6.782;2023-04-01T02:12:23;9.70;99.90
13616;DHT22;6879;51.368;6.782;2023-04-01T02:14:55;9.70;99.90
13616;DHT22;6879;51.368;6.782;2023-04-01T02:17:27;9.70;99.90
13616;DHT22;6879;51.368;6.782;2023-04-01T02:20:01;9.70;99.90
13616;DHT22;6879;51.368;6.782;2023-04-01T02:22:35;9.70;99.90
13616;DHT22;6879;51.368;6.782;2023-04-01T02:25:08;9.70;99.90
13616;DHT22;6879;51.368;6.782;2023-04-01T02:27:39;9.70;99.90
13616;DHT22;6879;51.368;6.782;2023-04-01T02:30:09;9.70;99.90
13616;DHT22;6879;51.368;6.782;2023-04-01T02:32:40;9.70;99.90
13616;DHT22;6879;51.368;6.782;2023-04-01T02:35:10;9.70;99.90
13616;DHT22;6879;51.368;6.782;2023-04-01T02:37:43;9.70;99.90
13616;DHT22;6879;51.368;6.782;2023-04-01T02:40:14;9.70;99.90
13616;DHT22;6879;51.368;6.782;2023-04-01T02:42:44;9.70;99.90
13616;DHT22;6879;51.368;6.782;2023-04-01T02:45:14;9.60;99.90
13616;DHT22;6879;51.368;6.782;2023-04-01T02:47:42;9.60;99.90
13616;DHT22;6879;51.368;6.782;2023-04-01T02:50:12;9.60;99.90
13616;DHT22;6879;51.368;6.782;2023-04-01T02:52:42;9.60;99.90
13616;DHT22;6879;51.368;6.782;2023-04-01T02:55:12;9.60;99.90
13616;DHT22;6879;51.368;6.782;2023-04-01T02:57:41;9.60;99.90
13616;DHT22;6879;51.368;6.782;2023-04-01T03:00:11;9.60;99.90
13616;DHT22;6879;51.368;6.782;2023-04-01T03:02:40;9.60;99.90
13616;DHT22;6879;51.368;6.782;2023-04-01T03:05:09;9.60;99.90
13616;DHT22;6879;51.368;6.782;2023-04-01T03:07:38;9.60;99.90
13616;DHT22;6879;51.368;6.782;2023-04-01T03:10:09;9.60;99.90
13616;DHT22;6879;51.368;6.782;2023-04-01T03:12:38;9.60;99.90
13616;DHT22;6879;51.368;6.782;2023-04-01T03:15:10;9.60;99.90
13616;DHT22;6879;51.368;6.782;2023-04-01T03:17:41;9.60;99.90
13616;DHT22;6879;51.368;6.782;2023-04-01T03:20:11;9.60;99.90
13616;DHT22;6879;51.368;6.782;2023-04-01T03:22:40;9.60;99.90
13616;DHT22;6879;51.368;6.782;2023-04-01T03:25:11;9.60;99.90
13616;DHT22;6879;51.368;6.782;2023-04-01T03:27:40;9.60;99.90
13616;DHT22;6879;51.368;6.782;2023-04-01T03:30:09;9.60;99.90
13616;DHT22;6879;51.368;6.782;2023-04-01T03:32:47;9.60;99.90
13616;DHT22;6879;51.368;6.782;2023-04-01T03:35:16;9.60;99.90
13616;DHT22;6879;51.368;6.782;2023-04-01T03:37:45;9.60;99.90
13616;DHT22;6879;51.368;6.782;2023-04-01T03:40:16;9.60;99.90
13616;DHT22;6879;51.368;6.782;2023-04-01T03:42:45;9.60;99.90
13616;DHT22;6879;51.368;6.782;2023-04-01T03:45:14;9.60;99.90
13616;DHT22;6879;51.368;6.782;2023-04-01T03:47:44;9.60;99.90
13616;DHT22;6879;51.368;6.782;2023-04-01T03:50:13;9.60;99.90
13616;DHT22;6879;51.368;6.782;2023-04-01T03:52:42;9.60;99.90
13616;DHT22;6879;51.368;6.782;2023-04-01T03:55:11;9.60;99.90
13616;DHT22;6879;51.368;6.782;2023-04-01T03:57:42;9.60;99.90
13616;DHT22;6879;51.368;6.782;2023-04-01T04:00:18;9.60;99.90
13616;DHT22;6879;51.368;6.782;2023-04-01T04:02:52;9.70;99.90
13616;DHT22;6879;51.368;6.782;2023-04-01T04:05:28;9.60;99.90
13616;DHT22;6879;51.368;6.782;2023-04-01T04:07:59;9.70;99.90
13616;DHT22;6879;51.368;6.782;2023-04-01T04:10:28;9.70;99.90
13616;DHT22;6879;51.368;6.782;2023-04-01T04:12:58;9.70;99.90
13616;DHT22;6879;51.368;6.782;2023-04-01T04:15:30;9.70;99.90
13616;DHT22;6879;51.368;6.782;2023-04-01T04:18:00;9.70;99.90
13616;DHT22;6879;51.368;6.782;2023-04-01T04:20:29;9.70;99.90
13616;DHT22;6879;51.368;6.782;2023-04-01T04:23:00;9.70;99.90
13616;DHT22;6879;51.368;6.782;2023-04-01T04:25:29;9.70;99.90
13616;DHT22;6879;51.368;6.782;2023-04-01T04:28:00;9.70;99.90
13616;DHT22;6879;51.368;6.782;2023-04-01T04:30:29;9.70;99.90
13616;DHT22;6879;51.368;6.782;2023-04-01T04:32:58;9.70;99.90
13616;DHT22;6879;51.368;6.782;2023-04-01T04:35:27;9.70;99.90
13616;DHT22;6879;51.368;6.782;2023-04-01T04:37:57;9.70;99.90
13616;DHT22;6879;51.368;6.782;2023-04-01T04:40:25;9.70;99.90
13616;DHT22;6879;51.368;6.782;2023-04-01T04:42:54;9.70;99.90
13616;DHT22;6879;51.368;6.782;2023-04-01T04:45:26;9.70;99.90
13616;DHT22;6879;51.368;6.782;2023-04-01T04:47:56;9.70;99.90
13616;DHT22;6879;51.368;6.782;2023-04-01T04:50:25;9.70;99.90
13616;DHT22;6879;51.368;6.782;2023-04-01T04:52:55;9.70;99.90
13616;DHT22;6879;51.368;6.782;2023-04-01T04:55:25;9.70;99.90
13616;DHT22;6879;51.368;6.782;2023-04-01T04:58:14;9.70;99.90
13616;DHT22;6879;51.368;6.782;2023-04-01T05:00:46;9.70;99.90
13616;DHT22;6879;51.368;6.782;2023-04-01T05:03:24;9.70;99.90
13616;DHT22;6879;51.368;6.782;2023-04-01T05:05:54;9.70;99.90
13616;DHT22;6879;51.368;6.782;2023-04-01T05:08:23;9.70;99.90
13616;DHT22;6879;51.368;6.782;2023-04-01T05:10:53;9.70;99.90
13616;DHT22;6879;51.368;6.782;2023-04-01T05:13:22;9.60;99.90
13616;DHT22;6879;51.368;6.782;2023-04-01T05:15:53;9.60;99.90
13616;DHT22;6879;51.368;6.782;2023-04-01T05:18:23;9.60;99.90
13616;DHT22;6879;51.368;6.782;2023-04-01T05:20:54;9.60;99.90
13616;DHT22;6879;51.368;6.782;2023-04-01T05:23:23;9.60;99.90
13616;DHT22;6879;51.368;6.782;2023-04-01T05:25:52;9.70;99.90
13616;DHT22;6879;51.368;6.782;2023-04-01T05:28:21;9.70;99.90
13616;DHT22;6879;51.368;6.782;2023-04-01T05:30:51;9.60;99.90
13616;DHT22;6879;51.368;6.782;2023-04-01T05:33:23;9.70;99.90
13616;DHT22;6879;51.368;6.782;2023-04-01T05:35:53;9.60;99.90
13616;DHT22;6879;51.368;6.782;2023-04-01T05:38:22;9.60;99.90
13616;DHT22;6879;51.368;6.782;2023-04-01T05:40:51;9.60;99.90
13616;DHT22;6879;51.368;6.782;2023-04-01T05:43:28;9.60;99.90
13616;DHT22;6879;51.368;6.782;2023-04-01T05:46:05;9.60;99.90
13616;DHT22;6879;51.368;6.782;2023-04-01T05:48:41;9.60;99.90
13616;DHT22;6879;51.368;6.782;2023-04-01T05:51:12;9.60;99.90
13616;DHT22;6879;51.368;6.782;2023-04-01T05:53:42;9.70;99.90
13616;DHT22;6879;51.368;6.782;2023-04-01T05:56:12;9.60;99.90
13616;DHT22;6879;51.368;6.782;2023-04-01T05:58:47;9.70;99.90
13616;DHT22;6879;51.368;6.782;2023-04-01T06:01:21;9.70;99.90
13616;DHT22;6879;51.368;6.782;2023-04-01T06:03:50;9.60;99.90
13616;DHT22;6879;51.368;6.782;2023-04-01T06:06:23;9.70;99.90
13616;DHT22;6879;51.368;6.782;2023-04-01T06:09:01;9.70;99.90
13616;DHT22;6879;51.368;6.782;2023-04-01T06:11:43;9.70;99.90
13616;DHT22;6879;51.368;6.782;2023-04-01T06:14:24;9.60;99.90
13616;DHT22;6879;51.368;6.782;2023-04-01T06:17:14;9.70;99.90
13616;DHT22;6879;51.368;6.782;2023-04-01T06:19:50;9.70;99.90
13616;DHT22;6879;51.368;6.782;2023-04-01T06:22:49;9.70;99.90
13616;DHT22;6879;51.368;6.782;2023-04-01T06:28:59;9.80;99.90
13616;DHT22;6879;51.368;6.782;2023-04-01T06:31:56;9.70;99.90
13616;DHT22;6879;51.368;6.782;2023-04-01T06:34:54;9.70;99.90
13616;DHT22;6879;51.368;6.782;2023-04-01T06:37:46;9.70;99.90
13616;DHT22;6879;51.368;6.782;2023-04-01T06:40:38;9.70;99.90
13616;DHT22;6879;51.368;6.782;2023-04-01T06:43:16;9.70;99.90
13616;DHT22;6879;51.368;6.782;2023-04-01T06:46:34;9.70;99.90
13616;DHT22;6879;51.368;6.782;2023-04-01T06:49:39;9.70;99.90
13616;DHT22;6879;51.368;6.782;2023-04-01T06:52:37;9.80;99.90
13616;DHT22;6879;51.368;6.782;2023-04-01T06:55:34;9.70;99.90
13616;DHT22;6879;51.368;6.782;2023-04-01T06:58:21;9.70;99.90
13616;DHT22;6879;51.368;6.782;2023-04-01T07:00:54;9.80;99.90
13616;DHT22;6879;51.368;6.782;2023-04-01T07:03:30;9.80;99.90
13616;DHT22;6879;51.368;6.782;2023-04-01T07:06:06;9.80;99.90
13616;DHT22;6879;51.368;6.782;2023-04-01T07:08:49;9.80;99.90
13616;DHT22;6879;51.368;6.782;2023-04-01T07:11:24;9.90;99.90
13616;DHT22;6879;51.368;6.782;2023-04-01T07:14:17;9.90;99.90
13616;DHT22;6879;51.368;6.782;2023-04-01T07:16:50;9.90;99.90
13616;DHT22;6879;51.368;6.782;2023-04-01T07:19:25;9.90;99.90
13616;DHT22;6879;51.368;6.782;2023-04-01T07:22:17;9.80;99.90
13616;DHT22;6879;51.368;6.782;2023-04-01T07:25:17;9.90;99.90
13616;DHT22;6879;51.368;6.782;2023-04-01T07:28:01;9.80;99.90
13616;DHT22;6879;51.368;6.782;2023-04-01T07:30:43;9.90;99.90
13616;DHT22;6879;51.368;6.782;2023-04-01T07:33:16;9.90;99.90
13616;DHT22;6879;51.368;6.782;2023-04-01T07:35:52;9.90;99.90
13616;DHT22;6879;51.368;6.782;2023-04-01T07:38:31;9.90;99.90
13616;DHT22;6879;51.368;6.782;2023-04-01T07:41:07;9.90;99.90
13616;DHT22;6879;51.368;6.782;2023-04-01T07:43:57;9.90;99.90
13616;DHT22;6879;51.368;6.782;2023-04-01T07:49:28;9.90;99.90
13616;DHT22;6879;51.368;6.782;2023-04-01T07:52:01;9.90;99.90
13616;DHT22;6879;51.368;6.782;2023-04-01T07:54:44;9.90;99.90
13616;DHT22;6879;51.368;6.782;2023-04-01T07:57:19;10.00;99.90
13616;DHT22;6879;51.368;6.782;2023-04-01T07:59:58;10.00;99.90
13616;DHT22;6879;51.368;6.782;2023-04-01T08:03:21;10.00;99.90
13616;DHT22;6879;51.368;6.782;2023-04-01T08:05:55;10.00;99.90
13616;DHT22;6879;51.368;6.782;2023-04-01T08:08:36;10.00;99.90
13616;DHT22;6879;51.368;6.782;2023-04-01T08:11:36;10.00;99.90
13616;DHT22;6879;51.368;6.782;2023-04-01T08:14:46;10.10;99.90
13616;DHT22;6879;51.368;6.782;2023-04-01T08:17:42;10.10;99.90
13616;DHT22;6879;51.368;6.782;2023-04-01T08:20:23;10.20;99.90
13616;DHT22;6879;51.368;6.782;2023-04-01T08:22:58;10.20;99.90
13616;DHT22;6879;51.368;6.782;2023-04-01T08:25:37;10.20;99.90
13616;DHT22;6879;51.368;6.782;2023-04-01T08:28:17;10.20;99.90
13616;DHT22;6879;51.368;6.782;2023-04-01T08:30:52;10.20;99.90
13616;DHT22;6879;51.368;6.782;2023-04-01T08:33:24;10.10;99.90
13616;DHT22;6879;51.368;6.782;2023-04-01T08:36:07;10.30;99.90
13616;DHT22;6879;51.368;6.782;2023-04-01T08:38:41;10.40;99.90
13616;DHT22;6879;51.368;6.782;2023-04-01T08:56:50;10.40;99.90
13616;DHT22;6879;51.368;6.782;2023-04-01T08:59:37;10.40;99.90
13616;DHT22;6879;51.368;6.782;2023-04-01T09:02:54;10.30;99.90
13616;DHT22;6879;51.368;6.782;2023-04-01T09:05:46;10.30;99.90
13616;DHT22;6879;51.368;6.782;2023-04-01T09:08:30;10.40;99.90
13616;DHT22;6879;51.368;6.782;2023-04-01T09:12:29;10.40;99.90
13616;DHT22;6879;51.368;6.782;2023-04-01T09:20:40;10.60;99.90
13616;DHT22;6879;51.368;6.782;2023-04-01T09:23:38;10.60;99.90
13616;DHT22;6879;51.368;6.782;2023-04-01T09:26:25;10.60;99.90
13616;DHT22;6879;51.368;6.782;2023-04-01T09:29:18;10.60;99.90
13616;DHT22;6879;51.368;6.782;2023-04-01T09:32:02;10.60;99.90
13616;DHT22;6879;51.368;6.782;2023-04-01T09:35:22;10.60;99.90
13616;DHT22;6879;51.368;6.782;2023-04-01T09:38:12;10.70;99.90
13616;DHT22;6879;51.368;6.782;2023-04-01T09:40:54;10.70;99.90
13616;DHT22;6879;51.368;6.782;2023-04-01T09:44:03;10.70;99.90
13616;DHT22;6879;51.368;6.782;2023-04-01T09:47:04;10.70;99.90
13616;DHT22;6879;51.368;6.782;2023-04-01T09:49:54;10.70;99.90
13616;DHT22;6879;51.368;6.782;2023-04-01T09:52:32;10.70;99.90
13616;DHT22;6879;51.368;6.782;2023-04-01T09:58:47;10.80;99.90
13616;DHT22;6879;51.368;6.782;2023-04-01T10:01:49;10.70;99.90
13616;DHT22;6879;51.368;6.782;2023-04-01T10:04:53;10.70;99.90
13616;DHT22;6879;51.368;6.782;2023-04-01T10:10:46;10.70;99.90
13616;DHT22;6879;51.368;6.782;2023-04-01T10:14:01;10.90;99.90
13616;DHT22;6879;51.368;6.782;2023-04-01T10:20:12;10.80;99.90
13616;DHT22;6879;51.368;6.782;2023-04-01T10:23:02;10.70;99.90
13616;DHT22;6879;51.368;6.782;2023-04-01T10:26:10;10.90;99.90
13616;DHT22;6879;51.368;6.782;2023-04-01T10:32:12;10.90;99.90
13616;DHT22;6879;51.368;6.782;2023-04-01T10:35:03;10.80;99.90
13616;DHT22;6879;51.368;6.782;2023-04-01T10:38:07;10.70;99.90
13616;DHT22;6879;51.368;6.782;2023-04-01T10:40:57;10.60;99.90
13616;DHT22;6879;51.368;6.782;2023-04-01T10:44:35;10.70;99.90
13616;DHT22;6879;51.368;6.782;2023-04-01T10:47:47;10.70;99.90
13616;DHT22;6879;51.368;6.782;2023-04-01T10:50:36;10.70;99.90
13616;DHT22;6879;51.368;6.782;2023-04-01T10:53:44;10.80;99.90
13616;DHT22;6879;51.368;6.782;2023-04-01T10:56:51;10.80;99.90
13616;DHT22;6879;51.368;6.782;2023-04-01T10:59:43;10.80;99.90
13616;DHT22;6879;51.368;6.782;2023-04-01T11:06:34;10.80;99.90
13616;DHT22;6879;51.368;6.782;2023-04-01T11:15:47;10.80;99.90
13616;DHT22;6879;51.368;6.782;2023-04-01T11:19:01;10.80;99.90
13616;DHT22;6879;51.368;6.782;2023-04-01T11:21:55;10.70;99.90
13616;DHT22;6879;51.368;6.782;2023-04-01T11:28:34;10.70;99.90
13616;DHT22;6879;51.368;6.782;2023-04-01T11:31:29;10.80;99.90
13616;DHT22;6879;51.368;6.782;2023-04-01T11:34:13;10.80;99.90
13616;DHT22;6879;51.368;6.782;2023-04-01T11:36:54;10.90;99.90
13616;DHT22;6879;51.368;6.782;2023-04-01T11:39:35;11.00;99.90
13616;DHT22;6879;51.368;6.782;2023-04-01T11:42:35;11.20;99.90
13616;DHT22;6879;51.368;6.782;2023-04-01T11:45:35;11.20;99.90
13616;DHT22;6879;51.368;6.782;2023-04-01T11:48:28;11.20;99.90
13616;DHT22;6879;51.368;6.782;2023-04-01T11:54:16;11.20;99.90
13616;DHT22;6879;51.368;6.782;2023-04-01T11:56:58;11.00;99.90
13616;DHT22;6879;51.368;6.782;2023-04-01T12:03:01;11.00;99.90
13616;DHT22;6879;51.368;6.782;2023-04-01T12:05:43;11.00;99.90
13616;DHT22;6879;51.368;6.782;2023-04-01T13:30:44;11.00;99.90
13616;DHT22;6879;51.368;6.782;2023-04-01T13:33:45;10.90;99.90
13616;DHT22;6879;51.368;6.782;2023-04-01T13:37:16;10.90;99.90
13616;DHT22;6879;51.368;6.782;2023-04-01T13:40:01;10.90;99.90
13616;DHT22;6879;51.368;6.782;2023-04-01T13:42:35;10.80;99.90
13616;DHT22;6879;51.368;6.782;2023-04-01T13:45:14;10.90;99.90
13616;DHT22;6879;51.368;6.782;2023-04-01T13:48:18;10.90;99.90
13616;DHT22;6879;51.368;6.782;2023-04-01T13:51:14;11.00;99.90
13616;DHT22;6879;51.368;6.782;2023-04-01T13:54:15;11.00;99.90
13616;DHT22;6879;51.368;6.782;2023-04-01T13:56:54;11.00;99.90
13616;DHT22;6879;51.368;6.782;2023-04-01T13:59:45;10.90;99.90
13616;DHT22;6879;51.368;6.782;2023-04-01T14:02:35;10.90;99.90
13616;DHT22;6879;51.368;6.782;2023-04-01T14:05:36;11.00;99.90
13616;DHT22;6879;51.368;6.782;2023-04-01T14:08:20;10.80;99.90
13616;DHT22;6879;51.368;6.782;2023-04-01T14:10:58;10.80;99.90
13616;DHT22;6879;51.368;6.782;2023-04-01T14:13:34;10.80;99.90
13616;DHT22;6879;51.368;6.782;2023-04-01T14:16:27;10.80;99.90
13616;DHT22;6879;51.368;6.782;2023-04-01T14:19:18;10.80;99.90
13616;DHT22;6879;51.368;6.782;2023-04-01T14:22:04;10.70;99.90
13616;DHT22;6879;51.368;6.782;2023-04-01T14:29:29;10.80;99.90
13616;DHT22;6879;51.368;6.782;2023-04-01T14:55:51;10.80;99.90
13616;DHT22;6879;51.368;6.782;2023-04-01T14:58:48;10.90;99.90
13616;DHT22;6879;51.368;6.782;2023-04-01T15:01:45;10.80;99.90
13616;DHT22;6879;51.368;6.782;2023-04-01T15:04:59;10.80;99.90
13616;DHT22;6879;51.368;6.782;2023-04-01T15:08:35;10.70;99.90
13616;DHT22;6879;51.368;6.782;2023-04-01T15:15:25;10.60;99.90
13616;DHT22;6879;51.368;6.782;2023-04-01T15:18:29;10.60;99.90
13616;DHT22;6879;51.368;6.782;2023-04-01T15:21:18;10.50;99.90
13616;DHT22;6879;51.368;6.782;2023-04-01T15:24:13;10.60;99.90
13616;DHT22;6879;51.368;6.782;2023-04-01T15:27:25;10.50;99.90
13616;DHT22;6879;51.368;6.782;2023-04-01T16:58:55;10.60;99.90
13616;DHT22;6879;51.368;6.782;2023-04-01T17:02:02;10.60;99.90
13616;DHT22;6879;51.368;6.782;2023-04-01T17:09:33;10.60;99.90
13616;DHT22;6879;51.368;6.782;2023-04-01T17:13:09;10.60;99.90
13616;DHT22;6879;51.368;6.782;2023-04-01T17:22:45;10.60;99.90
13616;DHT22;6879;51.368;6.782;2023-04-01T17:25:47;10.50;99.90
13616;DHT22;6879;51.368;6.782;2023-04-01T17:28:31;10.50;99.90
13616;DHT22;6879;51.368;6.782;2023-04-01T17:31:10;10.60;99.90
13616;DHT22;6879;51.368;6.782;2023-04-01T17:34:17;10.60;99.90
13616;DHT22;6879;51.368;6.782;2023-04-01T17:37:00;10.60;99.90
13616;DHT22;6879;51.368;6.782;2023-04-01T17:39:41;10.60;99.90
13616;DHT22;6879;51.368;6.782;2023-04-01T17:42:14;10.60;99.90
13616;DHT22;6879;51.368;6.782;2023-04-01T17:44:49;10.60;99.90
13616;DHT22;6879;51.368;6.782;2023-04-01T17:47:34;10.60;99.90
13616;DHT22;6879;51.368;6.782;2023-04-01T17:50:15;10.50;99.90
13616;DHT22;6879;51.368;6.782;2023-04-01T17:52:56;10.60;99.90
13616;DHT22;6879;51.368;6.782;2023-04-01T17:58:32;10.50;99.90
13616;DHT22;6879;51.368;6.782;2023-04-01T18:01:11;10.50;99.90
13616;DHT22;6879;51.368;6.782;2023-04-01T18:04:07;10.50;99.90
13616;DHT22;6879;51.368;6.782;2023-04-01T18:06:47;10.50;99.90
13616;DHT22;6879;51.368;6.782;2023-04-01T18:09:25;10.50;99.90
13616;DHT22;6879;51.368;6.782;2023-04-01T18:12:11;10.50;99.90
13616;DHT22;6879;51.368;6.782;2023-04-01T18:17:42;10.40;99.90
13616;DHT22;6879;51.368;6.782;2023-04-01T18:20:26;10.50;99.90
13616;DHT22;6879;51.368;6.782;2023-04-01T18:22:59;10.40;99.90
13616;DHT22;6879;51.368;6.782;2023-04-01T18:25:33;10.40;99.90
13616;DHT22;6879;51.368;6.782;2023-04-01T18:28:33;10.40;99.90
13616;DHT22;6879;51.368;6.782;2023-04-01T18:31:08;10.40;99.90
13616;DHT22;6879;51.368;6.782;2023-04-01T18:33:46;10.40;99.90
13616;DHT22;6879;51.368;6.782;2023-04-01T18:36:21;10.50;99.90
13616;DHT22;6879;51.368;6.782;2023-04-01T18:38:55;10.50;99.90
13616;DHT22;6879;51.368;6.782;2023-04-01T18:41:34;10.40;99.90
13616;DHT22;6879;51.368;6.782;2023-04-01T18:44:23;10.40;99.90
13616;DHT22;6879;51.368;6.782;2023-04-01T18:47:03;10.40;99.90
13616;DHT22;6879;51.368;6.782;2023-04-01T18:49:41;10.40;99.90
13616;DHT22;6879;51.368;6.782;2023-04-01T18:52:17;10.40;99.90
13616;DHT22;6879;51.368;6.782;2023-04-01T18:58:10;10.40;99.90
13616;DHT22;6879;51.368;6.782;2023-04-01T19:00:46;10.40;99.90
13616;DHT22;6879;51.368;6.782;2023-04-01T19:03:22;10.40;99.90
13616;DHT22;6879;51.368;6.782;2023-04-01T19:06:06;10.40;99.90
13616;DHT22;6879;51.368;6.782;2023-04-01T19:08:40;10.40;99.90
13616;DHT22;6879;51.368;6.782;2023-04-01T19:11:13;10.40;99.90
13616;DHT22;6879;51.368;6.782;2023-04-01T19:13:52;10.40;99.90
13616;DHT22;6879;51.368;6.782;2023-04-01T19:16:37;10.40;99.90
13616;DHT22;6879;51.368;6.782;2023-04-01T19:22:19;10.40;99.90
13616;DHT22;6879;51.368;6.782;2023-04-01T19:27:42;10.40;99.90
13616;DHT22;6879;51.368;6.782;2023-04-01T19:30:33;10.30;99.90
13616;DHT22;6879;51.368;6.782;2023-04-01T19:33:19;10.30;99.90
13616;DHT22;6879;51.368;6.782;2023-04-01T19:35:58;10.30;99.90
13616;DHT22;6879;51.368;6.782;2023-04-01T19:38:31;10.30;99.90
13616;DHT22;6879;51.368;6.782;2023-04-01T19:41:21;10.20;99.90
13616;DHT22;6879;51.368;6.782;2023-04-01T19:44:00;10.20;99.90
13616;DHT22;6879;51.368;6.782;2023-04-01T19:46:35;10.20;99.90
13616;DHT22;6879;51.368;6.782;2023-04-01T19:49:35;10.20;99.90
13616;DHT22;6879;51.368;6.782;2023-04-01T19:52:11;10.30;99.90
13616;DHT22;6879;51.368;6.782;2023-04-01T19:54:46;10.30;99.90
13616;DHT22;6879;51.368;6.782;2023-04-01T19:57:23;10.30;99.90
13616;DHT22;6879;51.368;6.782;2023-04-01T19:59:59;10.40;99.90
13616;DHT22;6879;51.368;6.782;2023-04-01T20:02:58;10.40;99.90
13616;DHT22;6879;51.368;6.782;2023-04-01T20:05:47;10.40;99.90
13616;DHT22;6879;51.368;6.782;2023-04-01T20:08:24;10.50;99.90
13616;DHT22;6879;51.368;6.782;2023-04-01T20:11:04;10.40;99.90
13616;DHT22;6879;51.368;6.782;2023-04-01T20:13:44;10.40;99.90
13616;DHT22;6879;51.368;6.782;2023-04-01T20:16:16;10.40;99.90
13616;DHT22;6879;51.368;6.782;2023-04-01T20:18:48;10.40;99.90
13616;DHT22;6879;51.368;6.782;2023-04-01T20:21:33;10.40;99.90
13616;DHT22;6879;51.368;6.782;2023-04-01T20:24:08;10.40;99.90
13616;DHT22;6879;51.368;6.782;2023-04-01T20:26:47;10.40;99.90
13616;DHT22;6879;51.368;6.782;2023-04-01T20:29:47;10.40;99.90
13616;DHT22;6879;51.368;6.782;2023-04-01T20:32:39;10.40;99.90
13616;DHT22;6879;51.368;6.782;2023-04-01T20:35:35;10.40;99.90
13616;DHT22;6879;51.368;6.782;2023-04-01T20:39:24;10.40;99.90
13616;DHT22;6879;51.368;6.782;2023-04-01T20:42:20;10.30;99.90
13616;DHT22;6879;51.368;6.782;2023-04-01T20:46:06;10.20;99.90
13616;DHT22;6879;51.368;6.782;2023-04-01T20:50:04;10.10;99.90
13616;DHT22;6879;51.368;6.782;2023-04-01T20:53:42;10.00;99.90
13616;DHT22;6879;51.368;6.782;2023-04-01T20:57:19;9.90;99.90
13616;DHT22;6879;51.368;6.782;2023-04-01T21:04:17;9.80;99.90
13616;DHT22;6879;51.368;6.782;2023-04-01T21:07:41;9.60;99.90
13616;DHT22;6879;51.368;6.782;2023-04-01T21:10:34;9.60;99.90
13616;DHT22;6879;51.368;6.782;2023-04-01T21:28:35;9.50;99.90
13616;DHT22;6879;51.368;6.782;2023-04-01T21:32:03;9.40;99.90
13616;DHT22;6879;51.368;6.782;2023-04-01T21:35:37;9.40;99.90
13616;DHT22;6879;51.368;6.782;2023-04-01T21:38:43;9.30;99.90
13616;DHT22;6879;51.368;6.782;2023-04-01T21:42:12;9.20;99.90
13616;DHT22;6879;51.368;6.782;2023-04-01T21:45:24;9.10;99.90
13616;DHT22;6879;51.368;6.782;2023-04-01T21:49:08;9.10;99.90
13616;DHT22;6879;51.368;6.782;2023-04-01T21:51:59;9.10;99.90
13616;DHT22;6879;51.368;6.782;2023-04-01T22:01:43;9.00;99.90
13616;DHT22;6879;51.368;6.782;2023-04-01T22:04:50;9.00;99.90
13616;DHT22;6879;51.368;6.782;2023-04-01T22:10:43;8.90;99.90
13616;DHT22;6879;51.368;6.782;2023-04-01T22:13:18;8.80;99.90
13616;DHT22;6879;51.368;6.782;2023-04-01T22:15:59;8.70;99.90
13616;DHT22;6879;51.368;6.782;2023-04-01T22:18:33;8.70;99.90
13616;DHT22;6879;51.368;6.782;2023-04-01T22:21:45;8.70;99.90
13616;DHT22;6879;51.368;6.782;2023-04-01T22:32:12;8.60;99.90
13616;DHT22;6879;51.368;6.782;2023-04-01T22:34:49;8.50;99.90
13616;DHT22;6879;51.368;6.782;2023-04-01T22:37:30;8.50;99.90
13616;DHT22;6879;51.368;6.782;2023-04-01T22:40:16;8.50;99.90
13616;DHT22;6879;51.368;6.782;2023-04-01T22:42:56;8.40;99.90
13616;DHT22;6879;51.368;6.782;2023-04-01T22:45:50;8.40;99.90
13616;DHT22;6879;51.368;6.782;2023-04-01T22:48:29;8.40;99.90
13616;DHT22;6879;51.368;6.782;2023-04-01T22:51:06;8.30;99.90
13616;DHT22;6879;51.368;6.782;2023-04-01T22:53:50;8.40;99.90
13616;DHT22;6879;51.368;6.782;2023-04-01T22:56:27;8.50;99.90
13616;DHT22;6879;51.368;6.782;2023-04-01T22:59:02;8.40;99.90
13616;DHT22;6879;51.368;6.782;2023-04-01T23:01:38;8.30;99.90
13616;DHT22;6879;51.368;6.782;2023-04-01T23:04:16;8.40;99.90
13616;DHT22;6879;51.368;6.782;2023-04-01T23:07:02;8.30;99.90
13616;DHT22;6879;51.368;6.782;2023-04-01T23:09:34;8.20;99.90